createdAt,value
2022-08-26T00:02:13.337Z,21.09
2022-08-26T00:05:17.152Z,21.05
2022-08-26T00:08:21.247Z,20.99
2022-08-26T00:11:26.639Z,21.00
2022-08-26T00:14:30.938Z,21.20
2022-08-26T00:17:33.701Z,21.00
2022-08-26T00:20:38.758Z,20.92
2022-08-26T00:23:44.962Z,20.94
2022-08-26T00:26:48.346Z,20.93
2022-08-26T00:29:50.035Z,20.92
2022-08-26T00:32:52.984Z,20.89
2022-08-26T00:35:55.570Z,20.91
2022-08-26T00:38:58.332Z,20.86
2022-08-26T00:42:00.664Z,20.91
2022-08-26T00:45:11.715Z,20.94
2022-08-26T00:48:18.348Z,20.91
2022-08-26T00:51:23.463Z,20.90
2022-08-26T00:54:32.923Z,20.87
2022-08-26T00:57:36.271Z,20.86
2022-08-26T01:00:38.583Z,20.82
2022-08-26T01:03:46.337Z,20.81
2022-08-26T01:06:50.298Z,20.81
2022-08-26T01:09:52.415Z,20.79
2022-08-26T01:13:01.984Z,20.77
2022-08-26T01:16:08.328Z,20.72
2022-08-26T01:19:19.615Z,20.62
2022-08-26T01:22:35.686Z,20.54
2022-08-26T01:25:43.084Z,20.52
2022-08-26T01:28:46.122Z,20.44
2022-08-26T01:31:57.885Z,20.41
2022-08-26T01:35:00.906Z,20.42
2022-08-26T01:38:03.394Z,20.37
2022-08-26T01:41:16.026Z,20.36
2022-08-26T01:44:24.109Z,20.26
2022-08-26T01:47:27.957Z,20.24
2022-08-26T01:50:35.382Z,20.28
2022-08-26T01:53:39.411Z,20.27
2022-08-26T01:56:44.271Z,20.30
2022-08-26T01:59:48.126Z,20.24
2022-08-26T02:03:14.789Z,20.18
2022-08-26T02:06:16.621Z,20.17
2022-08-26T02:09:19.846Z,20.18
2022-08-26T02:12:22.912Z,20.14
2022-08-26T02:15:24.642Z,20.15
2022-08-26T02:18:29.592Z,20.10
2022-08-26T02:21:33.051Z,20.07
2022-08-26T02:24:50.859Z,20.06
2022-08-26T02:27:53.248Z,20.07
2022-08-26T02:30:55.751Z,19.99
2022-08-26T02:34:08.629Z,19.98
2022-08-26T02:37:12.878Z,19.99
2022-08-26T02:40:17.156Z,20.04
2022-08-26T02:43:18.896Z,20.04
2022-08-26T02:46:33.548Z,19.95
2022-08-26T02:49:37.724Z,19.89
2022-08-26T02:52:40.399Z,19.88
2022-08-26T02:55:42.801Z,19.83
2022-08-26T02:58:45.254Z,19.83
2022-08-26T03:01:49.432Z,19.84
2022-08-26T03:04:57.424Z,19.85
2022-08-26T03:08:04.358Z,19.87
2022-08-26T03:11:06.131Z,19.88
2022-08-26T03:14:08.510Z,19.82
2022-08-26T03:17:10.513Z,19.84
2022-08-26T03:20:13.643Z,19.77
2022-08-26T03:23:17.191Z,19.84
2022-08-26T03:26:21.395Z,19.89
2022-08-26T03:29:42.731Z,19.75
2022-08-26T03:32:45.615Z,19.79
2022-08-26T03:35:50.551Z,19.82
2022-08-26T03:38:52.812Z,19.67
2022-08-26T03:41:55.466Z,19.56
2022-08-26T03:44:57.504Z,19.63
2022-08-26T03:48:00.019Z,19.57
2022-08-26T03:51:02.311Z,19.52
2022-08-26T03:54:05.997Z,19.80
2022-08-26T03:57:10.259Z,19.72
2022-08-26T04:00:18.252Z,19.58
2022-08-26T04:03:40.397Z,19.55
2022-08-26T04:06:44.527Z,19.44
2022-08-26T04:09:46.400Z,19.42
2022-08-26T04:12:48.463Z,19.38
2022-08-26T04:15:50.871Z,19.33
2022-08-26T04:18:52.510Z,19.33
2022-08-26T04:21:54.477Z,19.33
2022-08-26T04:24:56.272Z,19.37
2022-08-26T04:27:58.195Z,19.44
2022-08-26T04:31:00.265Z,19.43
2022-08-26T04:34:02.833Z,19.45
2022-08-26T04:37:05.958Z,19.46
2022-08-26T04:40:10.231Z,19.48
2022-08-26T04:43:12.986Z,19.75
2022-08-26T04:46:19.725Z,19.84
2022-08-26T04:49:21.621Z,19.86
2022-08-26T04:52:24.153Z,19.92
2022-08-26T04:55:38.727Z,20.11
2022-08-26T04:58:41.986Z,20.22
2022-08-26T05:01:50.293Z,20.15
2022-08-26T05:04:52.857Z,20.35
2022-08-26T05:07:54.537Z,20.32
2022-08-26T05:10:57.104Z,20.45
2022-08-26T05:14:02.136Z,20.61
2022-08-26T05:17:04.749Z,20.72
2022-08-26T05:20:07.361Z,20.84
2022-08-26T05:23:09.575Z,21.03
2022-08-26T05:26:11.763Z,21.18
2022-08-26T05:29:14.427Z,21.59
2022-08-26T05:32:16.335Z,21.66
2022-08-26T05:35:18.423Z,21.75
2022-08-26T05:38:21.858Z,21.96
2022-08-26T05:41:34.145Z,22.11
2022-08-26T05:44:55.534Z,22.25
2022-08-26T05:47:58.052Z,22.46
2022-08-26T05:51:05.008Z,22.51
2022-08-26T05:54:10.368Z,22.81
2022-08-26T05:57:13.901Z,22.79
2022-08-26T06:00:16.213Z,23.00
2022-08-26T06:03:18.909Z,22.98
2022-08-26T06:06:29.684Z,23.14
2022-08-26T06:09:31.692Z,23.13
2022-08-26T06:12:34.513Z,23.28
2022-08-26T06:15:39.899Z,23.29
2022-08-26T06:18:45.860Z,23.24
2022-08-26T06:21:51.276Z,23.17
2022-08-26T06:25:15.256Z,23.26
2022-08-26T06:28:17.808Z,23.54
2022-08-26T06:31:20.046Z,23.62
2022-08-26T06:34:22.024Z,23.70
2022-08-26T06:37:24.077Z,23.68
2022-08-26T06:40:25.845Z,23.50
2022-08-26T06:43:29.506Z,23.74
2022-08-26T06:46:31.745Z,23.78
2022-08-26T06:49:33.644Z,23.94
2022-08-26T06:52:35.372Z,24.02
2022-08-26T06:55:42.206Z,24.33
2022-08-26T06:58:44.774Z,24.53
2022-08-26T07:01:46.661Z,24.35
2022-08-26T07:04:48.552Z,24.56
2022-08-26T07:07:52.965Z,24.84
2022-08-26T07:10:55.972Z,25.37
2022-08-26T07:13:59.008Z,25.73
2022-08-26T07:17:02.717Z,25.97
2022-08-26T07:20:08.413Z,25.90
2022-08-26T07:23:11.851Z,26.38
2022-08-26T07:26:18.258Z,26.39
2022-08-26T07:29:20.145Z,26.97
2022-08-26T07:32:26.233Z,27.50
2022-08-26T07:35:28.526Z,27.86
2022-08-26T07:38:30.237Z,28.31
2022-08-26T07:41:36.630Z,28.80
2022-08-26T07:44:39.699Z,29.53
2022-08-26T07:47:42.550Z,30.21
2022-08-26T07:50:48.932Z,30.24
2022-08-26T07:53:53.387Z,30.86
2022-08-26T07:56:55.870Z,30.81
2022-08-26T07:59:58.969Z,31.96
2022-08-26T08:03:01.573Z,33.13
2022-08-26T08:06:03.313Z,33.75
2022-08-26T08:09:05.662Z,34.75
2022-08-26T08:12:09.499Z,33.68
2022-08-26T08:15:20.139Z,35.00
2022-08-26T08:18:23.391Z,34.69
2022-08-26T08:21:26.460Z,36.11
2022-08-26T08:24:28.985Z,34.91
2022-08-26T08:27:34.067Z,34.83
2022-08-26T08:30:39.716Z,34.65
2022-08-26T08:33:42.391Z,36.55
2022-08-26T08:36:46.463Z,35.70
2022-08-26T08:39:49.005Z,35.78
2022-08-26T08:43:06.423Z,37.42
2022-08-26T08:46:15.558Z,38.16
2022-08-26T08:49:18.940Z,37.33
2022-08-26T08:52:31.201Z,38.43
2022-08-26T08:55:55.611Z,39.01
2022-08-26T08:59:18.655Z,40.54
2022-08-26T09:02:31.810Z,40.84
2022-08-26T09:05:46.679Z,39.41
2022-08-26T09:08:51.564Z,39.89
2022-08-26T09:11:56.283Z,40.76
2022-08-26T09:15:18.563Z,41.77
2022-08-26T09:18:29.357Z,42.89
2022-08-26T09:21:32.191Z,43.72
2022-08-26T09:24:41.934Z,43.46
2022-08-26T09:27:53.323Z,43.64
2022-08-26T09:31:22.396Z,44.79
2022-08-26T09:34:28.052Z,43.47
2022-08-26T09:37:41.757Z,44.38
2022-08-26T09:40:59.426Z,44.00
2022-08-26T09:44:04.355Z,44.96
2022-08-26T09:47:07.595Z,45.70
2022-08-26T09:50:29.551Z,45.77
2022-08-26T09:53:37.682Z,44.98
2022-08-26T09:56:39.743Z,45.57
2022-08-26T09:59:41.715Z,45.40
2022-08-26T10:02:47.552Z,47.34
2022-08-26T10:06:00.221Z,46.06
2022-08-26T10:09:08.320Z,45.51
2022-08-26T10:12:19.390Z,46.67
2022-08-26T10:15:24.221Z,45.77
2022-08-26T10:18:33.881Z,43.08
2022-08-26T10:21:55.638Z,41.27
2022-08-26T10:25:02.664Z,40.58
2022-08-26T10:28:23.383Z,40.23
2022-08-26T10:31:40.551Z,39.70
2022-08-26T10:34:43.871Z,39.02
2022-08-26T10:37:49.969Z,37.17
2022-08-26T10:41:14.344Z,37.27
2022-08-26T10:44:20.846Z,36.63
2022-08-26T10:47:39.328Z,36.61
2022-08-26T10:50:44.956Z,36.27
2022-08-26T10:53:59.286Z,35.83
2022-08-26T10:57:25.460Z,35.82
2022-08-26T11:00:55.964Z,35.54
2022-08-26T11:04:23.559Z,34.50
2022-08-26T11:07:36.304Z,34.06
2022-08-26T11:10:59.334Z,34.39
2022-08-26T11:14:05.105Z,34.64
2022-08-26T11:17:11.433Z,34.78
2022-08-26T11:20:33.442Z,35.11
2022-08-26T11:23:50.592Z,35.12
2022-08-26T11:26:55.364Z,35.53
2022-08-26T11:30:05.529Z,35.69
2022-08-26T11:33:08.308Z,35.87
2022-08-26T11:36:12.264Z,35.88
2022-08-26T11:39:49.331Z,35.59
2022-08-26T11:43:18.759Z,35.13
2022-08-26T11:46:30.400Z,34.56
2022-08-26T11:49:33.329Z,34.54
2022-08-26T11:52:35.157Z,34.13
2022-08-26T11:55:43.431Z,34.11
2022-08-26T11:58:47.094Z,33.70
2022-08-26T12:01:51.542Z,33.72
2022-08-26T12:04:54.821Z,34.22
2022-08-26T12:08:07.270Z,34.18
2022-08-26T12:11:13.786Z,34.43
2022-08-26T12:14:21.998Z,34.53
2022-08-26T12:17:27.872Z,33.90
2022-08-26T12:20:48.939Z,33.81
2022-08-26T12:23:54.652Z,33.83
2022-08-26T12:27:32.100Z,34.25
2022-08-26T12:30:33.830Z,34.44
2022-08-26T12:33:36.729Z,34.65
2022-08-26T12:40:35.470Z,34.68
2022-08-26T12:43:39.490Z,34.73
2022-08-26T12:46:41.206Z,35.23
2022-08-26T12:49:44.118Z,35.12
2022-08-26T12:53:11.816Z,35.20
2022-08-26T12:56:29.528Z,37.21
2022-08-26T12:59:31.505Z,39.03
2022-08-26T13:02:40.095Z,41.80
2022-08-26T13:05:41.963Z,44.15
2022-08-26T13:08:49.690Z,46.21
2022-08-26T13:11:53.186Z,45.37
2022-08-26T13:14:56.161Z,47.90
2022-08-26T13:17:58.238Z,47.96
2022-08-26T13:21:00.299Z,47.80
2022-08-26T13:24:11.837Z,49.18
2022-08-26T13:27:15.030Z,49.93
2022-08-26T13:30:16.932Z,49.19
2022-08-26T13:33:18.839Z,50.09
2022-08-26T13:36:21.998Z,49.57
2022-08-26T13:39:25.139Z,48.98
2022-08-26T13:42:27.043Z,49.45
2022-08-26T13:45:28.766Z,50.30
2022-08-26T13:48:31.786Z,47.89
2022-08-26T13:51:34.265Z,47.75
2022-08-26T13:54:36.321Z,46.36
2022-08-26T13:57:38.575Z,46.59
2022-08-26T14:00:42.330Z,46.62
2022-08-26T14:03:44.485Z,47.90
2022-08-26T14:06:46.299Z,47.97
2022-08-26T14:09:50.278Z,49.53
2022-08-26T14:12:52.930Z,46.76
2022-08-26T14:15:55.019Z,46.91
2022-08-26T14:18:56.808Z,47.23
2022-08-26T14:22:00.917Z,47.26
2022-08-26T14:25:03.140Z,45.60
2022-08-26T14:28:05.027Z,42.99
2022-08-26T14:31:07.228Z,41.61
2022-08-26T14:34:09.802Z,40.79
2022-08-26T14:37:15.186Z,39.56
2022-08-26T14:40:19.071Z,38.71
2022-08-26T14:43:20.794Z,38.51
2022-08-26T14:46:22.689Z,37.98
2022-08-26T14:49:27.275Z,37.38
2022-08-26T14:52:29.777Z,36.84
2022-08-26T14:55:34.755Z,36.77
2022-08-26T14:58:36.617Z,36.53
2022-08-26T15:01:38.394Z,35.73
2022-08-26T15:04:41.410Z,35.83
2022-08-26T15:07:43.164Z,35.49
2022-08-26T15:10:45.072Z,35.05
2022-08-26T15:13:47.381Z,34.70
2022-08-26T15:16:51.489Z,34.75
2022-08-26T15:19:53.356Z,34.46
2022-08-26T15:22:55.047Z,34.13
2022-08-26T15:25:57.558Z,34.26
2022-08-26T15:29:04.252Z,34.18
2022-08-26T15:32:06.663Z,34.37
2022-08-26T15:35:09.388Z,34.14
2022-08-26T15:38:11.824Z,33.88
2022-08-26T15:41:14.406Z,33.76
2022-08-26T15:44:19.989Z,33.86
2022-08-26T15:47:22.276Z,33.38
2022-08-26T15:50:25.490Z,33.11
2022-08-26T15:53:30.531Z,33.11
2022-08-26T15:56:34.984Z,33.00
2022-08-26T15:59:36.973Z,33.10
2022-08-26T16:02:39.050Z,32.99
2022-08-26T16:05:45.615Z,32.94
2022-08-26T16:08:47.328Z,32.98
2022-08-26T16:11:49.368Z,32.99
2022-08-26T16:14:51.586Z,32.76
2022-08-26T16:17:54.831Z,32.68
2022-08-26T16:21:12.452Z,32.38
2022-08-26T16:24:16.074Z,32.47
2022-08-26T16:27:17.869Z,32.31
2022-08-26T16:30:21.520Z,32.18
2022-08-26T16:33:29.438Z,32.06
2022-08-26T16:36:32.069Z,31.99
2022-08-26T16:39:33.876Z,32.00
2022-08-26T16:42:42.229Z,31.83
2022-08-26T16:45:43.878Z,31.80
2022-08-26T16:48:45.861Z,31.61
2022-08-26T16:51:47.524Z,31.53
2022-08-26T16:54:49.483Z,31.46
2022-08-26T16:57:53.037Z,31.51
2022-08-26T17:00:54.827Z,31.32
2022-08-26T17:03:57.202Z,31.19
2022-08-26T17:06:59.960Z,30.98
2022-08-26T17:10:03.256Z,31.06
2022-08-26T17:13:05.070Z,30.92
2022-08-26T17:16:10.949Z,30.98
2022-08-26T17:19:12.720Z,30.83
2022-08-26T17:22:16.353Z,30.70
2022-08-26T17:25:28.178Z,30.29
2022-08-26T17:28:29.996Z,29.95
2022-08-26T17:31:32.573Z,29.51
2022-08-26T17:34:34.743Z,29.14
2022-08-26T17:37:36.984Z,28.72
2022-08-26T17:40:39.611Z,28.57
2022-08-26T17:43:41.600Z,28.54
2022-08-26T17:46:43.577Z,28.57
2022-08-26T17:49:45.706Z,28.45
2022-08-26T17:52:47.373Z,28.32
2022-08-26T17:55:49.928Z,28.27
2022-08-26T17:58:53.839Z,28.32
2022-08-26T18:01:58.686Z,28.41
2022-08-26T18:05:00.519Z,28.42
2022-08-26T18:08:02.634Z,28.30
2022-08-26T18:11:12.551Z,28.22
2022-08-26T18:14:14.554Z,28.11
2022-08-26T18:17:19.411Z,28.07
2022-08-26T18:20:21.491Z,28.04
2022-08-26T18:23:23.431Z,27.99
2022-08-26T18:26:31.840Z,28.02
2022-08-26T18:29:33.682Z,27.90
2022-08-26T18:32:36.027Z,27.91
2022-08-26T18:35:42.227Z,27.96
2022-08-26T18:38:45.393Z,27.85
2022-08-26T18:41:52.653Z,27.70
2022-08-26T18:44:54.511Z,27.68
2022-08-26T18:47:56.419Z,27.54
2022-08-26T18:51:00.679Z,27.52
2022-08-26T18:54:05.541Z,27.50
2022-08-26T18:57:07.446Z,27.51
2022-08-26T19:00:11.152Z,27.50
2022-08-26T19:03:16.393Z,27.35
2022-08-26T19:06:23.843Z,27.23
2022-08-26T19:09:28.913Z,27.12
2022-08-26T19:12:30.719Z,27.04
2022-08-26T19:15:41.552Z,26.87
2022-08-26T19:18:44.218Z,26.69
2022-08-26T19:21:47.492Z,26.69
2022-08-26T19:24:49.314Z,26.46
2022-08-26T19:27:51.145Z,26.25
2022-08-26T19:30:53.567Z,26.17
2022-08-26T19:33:58.339Z,26.02
2022-08-26T19:37:00.658Z,26.02
2022-08-26T19:40:03.617Z,25.87
2022-08-26T19:43:06.785Z,25.59
2022-08-26T19:46:11.145Z,25.37
2022-08-26T19:49:13.049Z,25.16
2022-08-26T19:52:15.323Z,25.18
2022-08-26T19:55:19.343Z,24.89
2022-08-26T19:58:21.644Z,24.86
2022-08-26T20:01:25.246Z,24.95
2022-08-26T20:04:46.582Z,24.79
2022-08-26T20:07:49.195Z,24.61
2022-08-26T20:10:52.943Z,24.63
2022-08-26T20:13:55.789Z,24.51
2022-08-26T20:16:58.214Z,24.39
2022-08-26T20:20:33.401Z,24.29
2022-08-26T20:23:36.894Z,24.05
2022-08-26T20:26:41.771Z,24.04
2022-08-26T20:29:44.057Z,24.08
2022-08-26T20:32:46.043Z,24.24
2022-08-26T20:35:47.750Z,23.99
2022-08-26T20:38:50.805Z,23.99
2022-08-26T20:41:52.869Z,23.98
2022-08-26T20:44:55.168Z,23.88
2022-08-26T20:47:56.878Z,23.96
2022-08-26T20:51:00.035Z,24.01
2022-08-26T20:54:03.729Z,23.84
2022-08-26T20:57:05.774Z,23.78
2022-08-26T21:00:08.238Z,23.68
2022-08-26T21:03:10.141Z,23.67
2022-08-26T21:06:12.637Z,23.61
2022-08-26T21:09:16.466Z,23.60
2022-08-26T21:12:18.516Z,23.51
2022-08-26T21:15:20.357Z,23.38
2022-08-26T21:18:22.413Z,23.29
2022-08-26T21:21:27.696Z,23.21
2022-08-26T21:24:29.489Z,23.16
2022-08-26T21:27:31.313Z,23.00
2022-08-26T21:30:37.106Z,23.06
2022-08-26T21:33:39.551Z,23.03
2022-08-26T21:36:41.858Z,23.07
2022-08-26T21:39:44.150Z,22.71
2022-08-26T21:42:46.463Z,22.50
2022-08-26T21:45:50.765Z,22.20
2022-08-26T21:49:04.525Z,21.97
2022-08-26T21:52:06.848Z,21.65
2022-08-26T21:55:11.552Z,21.48
2022-08-26T21:58:14.330Z,21.38
2022-08-26T22:01:20.827Z,21.66
2022-08-26T22:04:23.114Z,21.70
2022-08-26T22:07:24.759Z,21.58
2022-08-26T22:10:26.451Z,21.46
2022-08-26T22:13:31.841Z,21.19
2022-08-26T22:16:34.016Z,21.11
2022-08-26T22:19:45.957Z,21.01
2022-08-26T22:22:48.673Z,21.14
2022-08-26T22:25:51.000Z,21.16
2022-08-26T22:28:58.433Z,20.88
2022-08-26T22:32:01.999Z,21.06
2022-08-26T22:35:11.399Z,20.90
2022-08-26T22:38:26.294Z,20.70
2022-08-26T22:41:28.319Z,20.75
2022-08-26T22:44:31.486Z,20.91
2022-08-26T22:47:34.726Z,20.82
2022-08-26T22:50:38.958Z,21.14
2022-08-26T22:53:42.042Z,21.01
2022-08-26T22:56:45.076Z,20.99
2022-08-26T22:59:47.167Z,20.87
2022-08-26T23:02:48.994Z,20.82
2022-08-26T23:05:51.561Z,21.02
2022-08-26T23:08:55.297Z,20.48
2022-08-26T23:11:57.284Z,20.57
2022-08-26T23:14:59.767Z,20.26
2022-08-26T23:18:02.033Z,20.52
2022-08-26T23:21:04.154Z,20.52
2022-08-26T23:24:07.451Z,20.58
2022-08-26T23:27:09.667Z,20.51
2022-08-26T23:30:16.782Z,20.53
2022-08-26T23:33:18.878Z,20.42
2022-08-26T23:36:22.766Z,20.47
2022-08-26T23:39:25.615Z,20.38
2022-08-26T23:42:27.840Z,20.32
2022-08-26T23:45:32.623Z,20.30
2022-08-26T23:48:34.565Z,20.07
2022-08-26T23:51:56.588Z,19.65
2022-08-26T23:54:58.396Z,19.73
2022-08-26T23:58:00.341Z,19.61
